createdAt,value
2023-01-28T00:02:15.384Z,80.34
2023-01-28T00:04:43.700Z,80.01
2023-01-28T00:07:12.046Z,79.69
2023-01-28T00:09:40.532Z,79.86
2023-01-28T00:12:10.050Z,80.14
2023-01-28T00:14:38.474Z,79.95
2023-01-28T00:17:07.114Z,79.81
2023-01-28T00:19:36.850Z,80.42
2023-01-28T00:22:05.704Z,79.86
2023-01-28T00:24:34.016Z,79.77
2023-01-28T00:27:02.312Z,80.22
2023-01-28T00:29:30.649Z,80.11
2023-01-28T00:31:59.011Z,79.86
2023-01-28T00:34:30.951Z,80.06
2023-01-28T00:37:00.641Z,79.58
2023-01-28T00:39:29.026Z,79.71
2023-01-28T00:41:57.471Z,80.07
2023-01-28T00:44:26.234Z,80.09
2023-01-28T00:46:54.785Z,79.58
2023-01-28T00:49:24.043Z,79.58
2023-01-28T00:51:52.367Z,79.96
2023-01-28T00:54:22.553Z,79.88
2023-01-28T00:56:50.873Z,79.45
2023-01-28T00:59:19.265Z,79.44
2023-01-28T01:01:49.033Z,80.18
2023-01-28T01:04:26.886Z,80.02
2023-01-28T01:06:55.551Z,79.50
2023-01-28T01:09:25.342Z,79.52
2023-01-28T01:11:53.769Z,79.70
2023-01-28T01:14:22.084Z,80.04
2023-01-28T01:16:50.563Z,79.36
2023-01-28T01:19:20.790Z,79.33
2023-01-28T01:21:50.984Z,79.68
2023-01-28T01:24:19.596Z,79.83
2023-01-28T01:26:49.771Z,79.33
2023-01-28T01:29:18.266Z,79.50
2023-01-28T01:31:46.607Z,79.34
2023-01-28T01:34:15.844Z,79.31
2023-01-28T01:36:44.960Z,79.52
2023-01-28T01:39:14.252Z,80.10
2023-01-28T01:41:42.909Z,79.56
2023-01-28T01:44:44.358Z,79.72
2023-01-28T01:47:15.213Z,79.27
2023-01-28T01:49:43.962Z,79.85
2023-01-28T01:52:15.668Z,79.67
2023-01-28T01:54:48.310Z,79.89
2023-01-28T01:57:22.695Z,79.40
2023-01-28T01:59:52.151Z,79.45
2023-01-28T02:02:22.083Z,79.66
2023-01-28T02:04:50.439Z,79.14
2023-01-28T02:07:21.030Z,80.12
2023-01-28T02:09:49.442Z,79.21
2023-01-28T02:12:23.028Z,79.47
2023-01-28T02:14:55.776Z,79.17
2023-01-28T02:17:26.637Z,79.50
2023-01-28T02:19:59.209Z,79.07
2023-01-28T02:23:01.788Z,79.04
2023-01-28T02:26:08.576Z,79.43
2023-01-28T02:28:46.600Z,79.30
2023-01-28T02:31:23.695Z,78.79
2023-01-28T02:34:00.795Z,79.08
2023-01-28T02:36:37.660Z,79.29
2023-01-28T02:39:14.566Z,79.37
2023-01-28T02:41:50.334Z,79.23
2023-01-28T02:44:20.328Z,79.15
2023-01-28T02:47:06.365Z,79.15
2023-01-28T02:49:40.454Z,78.95
2023-01-28T02:52:42.557Z,79.22
2023-01-28T02:55:19.213Z,78.95
2023-01-28T02:58:00.340Z,79.27
2023-01-28T03:00:42.456Z,79.36
2023-01-28T03:03:18.148Z,79.01
2023-01-28T03:06:05.314Z,79.32
2023-01-28T03:08:57.357Z,79.50
2023-01-28T03:11:45.884Z,79.15
2023-01-28T03:14:32.262Z,79.13
2023-01-28T03:17:26.553Z,79.80
2023-01-28T03:20:13.417Z,79.72
2023-01-28T03:23:07.489Z,79.81
2023-01-28T03:25:59.303Z,79.79
2023-01-28T03:28:47.452Z,79.27
2023-01-28T03:31:37.493Z,79.99
2023-01-28T03:34:26.794Z,80.04
2023-01-28T03:36:56.399Z,79.85
2023-01-28T03:39:47.289Z,79.91
2023-01-28T03:42:18.652Z,79.49
2023-01-28T03:44:57.377Z,80.13
2023-01-28T03:47:27.510Z,79.66
2023-01-28T03:49:59.787Z,80.51
2023-01-28T03:52:32.131Z,79.43
2023-01-28T03:55:19.355Z,79.74
2023-01-28T03:57:48.926Z,80.60
2023-01-28T04:00:20.302Z,79.60
2023-01-28T04:02:48.927Z,79.12
2023-01-28T04:05:20.884Z,78.96
2023-01-28T04:07:51.840Z,79.24
2023-01-28T04:10:46.086Z,80.06
2023-01-28T04:13:21.854Z,79.76
2023-01-28T04:15:50.573Z,79.56
2023-01-28T04:18:19.944Z,79.51
2023-01-28T04:20:52.864Z,79.76
2023-01-28T04:23:21.266Z,78.98
2023-01-28T04:25:51.692Z,79.29
2023-01-28T04:28:21.211Z,79.42
2023-01-28T04:30:50.091Z,79.83
2023-01-28T04:33:45.147Z,79.49
2023-01-28T04:36:35.149Z,80.07
2023-01-28T04:39:22.240Z,80.14
2023-01-28T04:42:16.234Z,79.94
2023-01-28T04:45:02.370Z,80.03
2023-01-28T04:47:57.014Z,80.61
2023-01-28T04:50:46.990Z,80.85
2023-01-28T04:53:38.570Z,80.84
2023-01-28T04:56:25.212Z,81.11
2023-01-28T04:58:53.507Z,80.85
2023-01-28T05:01:21.887Z,81.09
2023-01-28T05:03:50.182Z,80.99
2023-01-28T05:06:27.559Z,81.04
2023-01-28T05:08:59.689Z,81.22
2023-01-28T05:11:28.904Z,81.48
2023-01-28T05:14:01.095Z,81.05
2023-01-28T05:16:35.207Z,81.86
2023-01-28T05:19:04.930Z,81.09
2023-01-28T05:21:42.986Z,81.06
2023-01-28T05:24:37.510Z,81.64
2023-01-28T05:27:07.262Z,80.73
2023-01-28T05:29:35.615Z,80.93
2023-01-28T05:32:04.105Z,80.30
2023-01-28T05:34:33.161Z,80.24
2023-01-28T05:37:06.587Z,80.09
2023-01-28T05:39:39.719Z,80.03
2023-01-28T05:42:08.156Z,79.84
2023-01-28T05:44:41.355Z,80.09
2023-01-28T05:47:17.011Z,80.21
2023-01-28T05:49:54.247Z,79.49
2023-01-28T05:52:28.400Z,80.14
2023-01-28T05:54:59.529Z,79.67
2023-01-28T05:57:27.874Z,79.80
2023-01-28T05:59:56.173Z,79.91
2023-01-28T06:02:24.604Z,79.81
2023-01-28T06:04:56.249Z,80.38
2023-01-28T06:07:25.210Z,80.28
2023-01-28T06:09:53.533Z,80.02
2023-01-28T06:12:24.665Z,80.15
2023-01-28T06:15:15.612Z,79.92
2023-01-28T06:18:04.501Z,79.89
2023-01-28T06:20:35.392Z,80.12
2023-01-28T06:23:03.786Z,80.10
2023-01-28T06:25:32.102Z,79.92
2023-01-28T06:28:06.882Z,80.19
2023-01-28T06:30:35.333Z,81.26
2023-01-28T06:33:03.709Z,81.04
2023-01-28T06:35:32.033Z,81.25
2023-01-28T06:38:00.298Z,81.83
2023-01-28T06:40:28.666Z,82.01
2023-01-28T06:42:57.019Z,82.26
2023-01-28T06:45:26.699Z,82.30
2023-01-28T06:47:55.014Z,81.94
2023-01-28T06:50:23.362Z,82.50
2023-01-28T06:52:51.647Z,81.94
2023-01-28T06:55:19.995Z,81.92
2023-01-28T06:57:48.292Z,81.85
2023-01-28T07:00:17.645Z,81.75
2023-01-28T07:02:47.628Z,81.64
2023-01-28T07:05:16.083Z,81.68
2023-01-28T07:07:45.649Z,81.60
2023-01-28T07:10:14.365Z,81.39
2023-01-28T07:12:45.153Z,81.57
2023-01-28T07:15:15.331Z,81.50
2023-01-28T07:17:43.844Z,81.12
2023-01-28T07:20:16.584Z,81.09
2023-01-28T07:22:45.913Z,81.27
2023-01-28T07:25:15.416Z,81.28
2023-01-28T07:27:48.471Z,80.72
2023-01-28T07:30:18.441Z,81.03
2023-01-28T07:32:47.601Z,81.17
2023-01-28T07:35:17.415Z,80.86
2023-01-28T07:37:52.983Z,81.50
2023-01-28T07:40:22.420Z,81.00
2023-01-28T07:42:50.791Z,81.15
2023-01-28T07:45:23.859Z,81.31
2023-01-28T07:47:56.913Z,81.03
2023-01-28T07:50:27.132Z,81.12
2023-01-28T07:52:55.690Z,80.98
2023-01-28T07:55:24.125Z,81.36
2023-01-28T07:57:53.982Z,80.84
2023-01-28T08:00:23.502Z,80.84
2023-01-28T08:02:56.335Z,80.88
2023-01-28T08:05:27.393Z,80.83
2023-01-28T08:07:55.883Z,81.05
2023-01-28T08:10:24.268Z,80.67
2023-01-28T08:12:53.705Z,80.44
2023-01-28T08:15:22.633Z,80.76
2023-01-28T08:17:50.993Z,80.56
2023-01-28T08:20:19.417Z,80.64
2023-01-28T08:22:49.285Z,80.83
2023-01-28T08:25:17.862Z,81.47
2023-01-28T08:27:46.126Z,81.58
2023-01-28T08:30:15.319Z,80.72
2023-01-28T08:32:43.890Z,81.24
2023-01-28T08:35:12.479Z,81.73
2023-01-28T08:37:40.792Z,81.59
2023-01-28T08:40:12.286Z,81.36
2023-01-28T08:42:40.631Z,81.33
2023-01-28T08:45:10.207Z,81.34
2023-01-28T08:47:38.491Z,79.80
2023-01-28T08:50:07.840Z,80.59
2023-01-28T08:52:36.155Z,80.67
2023-01-28T08:55:04.640Z,80.23
2023-01-28T08:57:34.673Z,80.53
2023-01-28T09:00:02.965Z,80.73
2023-01-28T09:02:32.406Z,80.24
2023-01-28T09:05:01.138Z,80.73
2023-01-28T09:07:29.599Z,80.75
2023-01-28T09:09:58.038Z,81.08
2023-01-28T09:12:27.245Z,81.50
2023-01-28T09:14:57.076Z,81.44
2023-01-28T09:17:25.648Z,81.80
2023-01-28T09:19:54.082Z,81.65
2023-01-28T09:22:22.462Z,80.96
2023-01-28T09:24:50.874Z,81.24
2023-01-28T09:27:19.387Z,80.77
2023-01-28T09:29:47.734Z,81.50
2023-01-28T09:32:17.479Z,81.18
2023-01-28T09:34:45.851Z,82.09
2023-01-28T09:37:14.800Z,81.54
2023-01-28T09:39:44.172Z,82.06
2023-01-28T09:42:44.001Z,81.86
2023-01-28T09:45:18.421Z,81.74
2023-01-28T09:47:52.963Z,82.10
2023-01-28T09:50:27.936Z,81.99
2023-01-28T09:53:03.787Z,82.11
2023-01-28T09:55:35.868Z,82.22
2023-01-28T09:58:10.060Z,82.56
2023-01-28T10:00:46.984Z,82.72
2023-01-28T10:03:38.221Z,82.25
2023-01-28T10:06:18.070Z,83.02
2023-01-28T10:09:04.162Z,82.58
2023-01-28T10:11:48.746Z,82.98
2023-01-28T10:14:25.579Z,82.63
2023-01-28T10:17:01.673Z,82.82
2023-01-28T10:19:34.826Z,82.57
2023-01-28T10:22:06.846Z,82.82
2023-01-28T10:24:37.339Z,82.83
2023-01-28T10:27:13.639Z,83.12
2023-01-28T10:29:46.090Z,83.02
2023-01-28T10:32:23.929Z,83.08
2023-01-28T10:34:54.527Z,83.05
2023-01-28T10:37:23.334Z,83.09
2023-01-28T10:39:54.283Z,83.14
2023-01-28T10:42:29.294Z,82.63
2023-01-28T10:45:02.665Z,83.06
2023-01-28T10:47:36.635Z,83.32
2023-01-28T10:50:07.663Z,83.40
2023-01-28T10:52:35.905Z,82.71
2023-01-28T10:55:07.033Z,83.31
2023-01-28T10:57:36.483Z,83.29
2023-01-28T11:00:14.308Z,83.09
2023-01-28T11:02:43.458Z,83.25
2023-01-28T11:05:21.093Z,83.10
2023-01-28T11:07:50.375Z,82.66
2023-01-28T11:10:28.125Z,82.97
2023-01-28T11:12:57.900Z,82.96
2023-01-28T11:15:26.889Z,83.11
2023-01-28T11:18:00.276Z,82.64
2023-01-28T11:20:36.570Z,82.99
2023-01-28T11:23:07.880Z,82.92
2023-01-28T11:25:38.698Z,83.22
2023-01-28T11:28:17.250Z,83.18
2023-01-28T11:30:51.394Z,82.76
2023-01-28T11:33:23.716Z,83.20
2023-01-28T11:35:58.353Z,82.88
2023-01-28T11:38:27.990Z,83.29
2023-01-28T11:40:57.843Z,83.54
2023-01-28T11:43:28.130Z,83.53
2023-01-28T11:46:10.032Z,83.64
2023-01-28T11:48:51.439Z,83.08
2023-01-28T11:51:36.481Z,83.11
2023-01-28T11:54:19.004Z,83.67
2023-01-28T11:57:01.057Z,83.19
2023-01-28T11:59:55.255Z,83.56
2023-01-28T12:02:44.918Z,83.06
2023-01-28T12:05:31.198Z,83.66
2023-01-28T12:08:10.663Z,83.80
2023-01-28T12:10:49.639Z,83.26
2023-01-28T12:13:30.919Z,83.76
2023-01-28T12:16:24.692Z,83.60
2023-01-28T12:19:17.043Z,83.61
2023-01-28T12:22:03.091Z,83.49
2023-01-28T12:24:44.712Z,83.23
2023-01-28T12:27:27.498Z,83.67
2023-01-28T12:30:05.827Z,82.96
2023-01-28T12:32:50.533Z,83.05
2023-01-28T12:35:53.468Z,83.24
2023-01-28T12:38:34.090Z,83.54
2023-01-28T12:41:10.414Z,83.36
2023-01-28T12:43:47.949Z,83.95
2023-01-28T12:46:39.847Z,83.61
2023-01-28T12:49:12.068Z,83.00
2023-01-28T12:51:51.377Z,83.23
2023-01-28T12:54:25.482Z,83.62
2023-01-28T12:56:56.351Z,83.37
2023-01-28T12:59:30.602Z,83.05
2023-01-28T13:02:07.900Z,82.78
2023-01-28T13:04:43.818Z,82.92
2023-01-28T13:07:16.910Z,82.56
2023-01-28T13:09:51.263Z,82.99
2023-01-28T13:12:22.785Z,82.69
2023-01-28T13:14:54.246Z,83.24
2023-01-28T13:17:30.484Z,83.62
2023-01-28T13:19:59.730Z,83.27
2023-01-28T13:22:31.804Z,83.17
2023-01-28T13:25:20.079Z,83.41
2023-01-28T13:27:59.206Z,83.20
2023-01-28T13:30:29.931Z,83.43
2023-01-28T13:33:01.044Z,83.48
2023-01-28T13:35:35.572Z,83.44
2023-01-28T13:38:17.365Z,83.00
2023-01-28T13:40:55.714Z,83.36
2023-01-28T13:43:38.714Z,83.70
2023-01-28T13:46:09.241Z,83.56
2023-01-28T13:48:44.191Z,83.72
2023-01-28T13:51:20.806Z,83.56
2023-01-28T13:53:56.086Z,83.25
2023-01-28T13:56:28.459Z,82.97
2023-01-28T13:59:38.623Z,82.94
2023-01-28T14:02:42.235Z,82.70
2023-01-28T14:05:49.195Z,82.42
2023-01-28T14:08:50.475Z,82.20
2023-01-28T14:11:54.891Z,82.64
2023-01-28T14:14:49.876Z,82.02
2023-01-28T14:17:27.919Z,82.37
2023-01-28T14:19:58.708Z,82.25
2023-01-28T14:22:27.943Z,82.62
2023-01-28T14:25:00.637Z,82.49
2023-01-28T14:27:36.297Z,82.46
2023-01-28T14:30:15.815Z,81.98
2023-01-28T14:32:49.112Z,82.36
2023-01-28T14:35:21.652Z,82.08
2023-01-28T14:37:50.195Z,82.24
2023-01-28T14:40:19.037Z,82.19
2023-01-28T14:42:51.847Z,82.43
2023-01-28T14:45:55.211Z,82.74
2023-01-28T14:48:26.764Z,82.73
2023-01-28T14:51:18.127Z,82.44
2023-01-28T14:54:05.576Z,82.35
2023-01-28T14:56:47.280Z,82.90
2023-01-28T14:59:20.173Z,82.72
2023-01-28T15:01:51.010Z,82.97
2023-01-28T15:04:25.668Z,82.76
2023-01-28T15:06:54.156Z,82.72
2023-01-28T15:09:24.226Z,82.51
2023-01-28T15:11:57.927Z,82.09
2023-01-28T15:14:31.531Z,82.45
2023-01-28T15:17:02.786Z,82.62
2023-01-28T15:19:33.973Z,82.46
2023-01-28T15:22:05.553Z,82.31
2023-01-28T15:24:36.735Z,82.22
2023-01-28T15:27:05.316Z,82.77
2023-01-28T15:29:35.410Z,82.42
2023-01-28T15:32:06.735Z,82.36
2023-01-28T15:34:35.086Z,82.20
2023-01-28T15:37:03.670Z,82.26
2023-01-28T15:39:31.981Z,82.37
2023-01-28T15:42:03.671Z,81.98
2023-01-28T15:44:36.203Z,82.06
2023-01-28T15:47:17.347Z,82.36
2023-01-28T15:49:49.925Z,82.31
2023-01-28T15:52:18.614Z,82.29
2023-01-28T15:54:52.627Z,82.38
2023-01-28T15:57:22.251Z,82.52
2023-01-28T15:59:51.413Z,82.15
2023-01-28T16:02:22.701Z,82.62
2023-01-28T16:05:01.984Z,82.70
2023-01-28T16:07:33.502Z,82.62
2023-01-28T16:10:04.872Z,82.28
2023-01-28T16:12:33.125Z,82.54
2023-01-28T16:15:04.256Z,82.21
2023-01-28T16:17:42.714Z,82.82
2023-01-28T16:20:23.208Z,82.65
2023-01-28T16:22:52.434Z,82.75
2023-01-28T16:25:30.576Z,82.65
2023-01-28T16:27:59.839Z,82.90
2023-01-28T16:30:29.014Z,82.47
2023-01-28T16:32:58.703Z,82.84
2023-01-28T16:35:47.122Z,82.30
2023-01-28T16:38:19.105Z,83.03
2023-01-28T16:40:48.565Z,82.88
2023-01-28T16:43:17.744Z,83.64
2023-01-28T16:45:47.199Z,83.39
2023-01-28T16:48:17.172Z,83.32
2023-01-28T16:50:45.708Z,83.64
2023-01-28T16:53:21.826Z,83.04
2023-01-28T16:55:52.121Z,83.65
2023-01-28T16:58:25.252Z,83.57
2023-01-28T17:00:53.662Z,83.32
2023-01-28T17:03:23.762Z,83.38
2023-01-28T17:05:52.113Z,83.74
2023-01-28T17:08:20.460Z,83.08
2023-01-28T17:10:53.809Z,83.22
2023-01-28T17:13:22.746Z,83.07
2023-01-28T17:15:51.200Z,82.76
2023-01-28T17:18:19.590Z,82.71
2023-01-28T17:20:49.352Z,82.99
2023-01-28T17:23:22.914Z,82.55
2023-01-28T17:25:51.436Z,82.53
2023-01-28T17:28:19.786Z,83.01
2023-01-28T17:30:48.265Z,82.57
2023-01-28T17:33:16.639Z,82.64
2023-01-28T17:35:49.212Z,82.98
2023-01-28T17:38:18.159Z,82.66
2023-01-28T17:40:46.461Z,83.15
2023-01-28T17:43:14.858Z,82.83
2023-01-28T17:45:44.336Z,82.84
2023-01-28T17:48:12.872Z,82.62
2023-01-28T17:50:41.927Z,82.49
2023-01-28T17:53:12.396Z,82.80
2023-01-28T17:55:40.968Z,82.54
2023-01-28T17:58:09.218Z,82.50
2023-01-28T18:00:37.504Z,82.40
2023-01-28T18:03:05.850Z,82.25
2023-01-28T18:05:34.421Z,82.52
2023-01-28T18:08:02.781Z,82.52
2023-01-28T18:10:32.621Z,82.40
2023-01-28T18:13:02.126Z,82.42
2023-01-28T18:15:30.514Z,82.48
2023-01-28T18:17:58.763Z,82.66
2023-01-28T18:20:27.168Z,82.61
2023-01-28T18:22:55.436Z,82.42
2023-01-28T18:25:24.194Z,82.43
2023-01-28T18:27:54.303Z,82.43
2023-01-28T18:30:22.745Z,81.91
2023-01-28T18:32:51.134Z,82.35
2023-01-28T18:35:19.760Z,82.11
2023-01-28T18:37:48.078Z,82.02
2023-01-28T18:40:16.720Z,82.40
2023-01-28T18:42:44.983Z,81.91
2023-01-28T18:45:15.007Z,81.69
2023-01-28T18:47:43.759Z,81.56
2023-01-28T18:50:12.303Z,81.81
2023-01-28T18:52:40.632Z,81.65
2023-01-28T18:55:10.300Z,81.76
2023-01-28T18:57:38.754Z,81.70
2023-01-28T19:00:08.471Z,82.18
2023-01-28T19:02:38.184Z,82.09
2023-01-28T19:05:07.071Z,81.63
2023-01-28T19:07:35.380Z,81.88
2023-01-28T19:10:03.768Z,82.04
2023-01-28T19:12:32.223Z,81.55
2023-01-28T19:15:00.547Z,82.29
2023-01-28T19:17:28.861Z,82.13
2023-01-28T19:19:58.626Z,81.84
2023-01-28T19:22:27.047Z,82.26
2023-01-28T19:24:55.404Z,81.73
2023-01-28T19:27:23.738Z,82.02
2023-01-28T19:29:52.067Z,81.57
2023-01-28T19:32:20.362Z,81.73
2023-01-28T19:34:48.807Z,81.66
2023-01-28T19:37:18.487Z,81.27
2023-01-28T19:39:46.872Z,81.25
2023-01-28T19:42:15.546Z,81.52
2023-01-28T19:44:43.871Z,81.64
2023-01-28T19:47:12.172Z,81.28
2023-01-28T19:49:40.575Z,81.20
2023-01-28T19:52:10.941Z,81.10
2023-01-28T19:54:40.678Z,80.46
2023-01-28T19:57:09.044Z,79.93
2023-01-28T19:59:37.328Z,80.20
2023-01-28T20:02:05.797Z,80.56
2023-01-28T20:04:34.253Z,80.74
2023-01-28T20:07:02.762Z,80.28
2023-01-28T20:09:31.168Z,80.57
2023-01-28T20:12:00.850Z,80.66
2023-01-28T20:14:29.300Z,80.52
2023-01-28T20:16:57.677Z,80.33
2023-01-28T20:19:25.961Z,80.24
2023-01-28T20:21:54.343Z,80.37
2023-01-28T20:24:23.082Z,80.39
2023-01-28T20:26:51.517Z,80.06
2023-01-28T20:29:22.543Z,80.45
2023-01-28T20:32:05.154Z,80.15
2023-01-28T20:34:39.407Z,80.30
2023-01-28T20:37:10.193Z,80.20
2023-01-28T20:39:38.568Z,80.30
2023-01-28T20:42:09.447Z,79.97
2023-01-28T20:44:39.229Z,80.40
2023-01-28T20:47:07.790Z,79.98
2023-01-28T20:49:36.099Z,79.51
2023-01-28T20:52:04.511Z,79.96
2023-01-28T20:54:32.876Z,78.57
2023-01-28T20:57:01.264Z,78.66
2023-01-28T20:59:31.292Z,78.38
2023-01-28T21:02:03.745Z,77.42
2023-01-28T21:04:32.125Z,78.20
2023-01-28T21:07:00.392Z,77.67
2023-01-28T21:09:28.826Z,77.08
2023-01-28T21:11:57.163Z,76.18
2023-01-28T21:14:25.722Z,76.34
2023-01-28T21:16:54.382Z,75.66
2023-01-28T21:19:24.570Z,75.33
2023-01-28T21:21:52.956Z,74.53
2023-01-28T21:24:23.402Z,74.98
2023-01-28T21:26:51.805Z,74.21
2023-01-28T21:29:20.084Z,74.46
2023-01-28T21:31:48.474Z,74.40
2023-01-28T21:34:16.946Z,73.58
2023-01-28T21:36:46.733Z,73.87
2023-01-28T21:39:15.117Z,73.59
2023-01-28T21:41:43.368Z,74.33
2023-01-28T21:44:13.194Z,74.07
2023-01-28T21:46:41.629Z,74.32
2023-01-28T21:49:12.224Z,73.64
2023-01-28T21:51:45.816Z,74.26
2023-01-28T21:54:17.431Z,74.62
2023-01-28T21:56:46.398Z,73.99
2023-01-28T21:59:30.762Z,73.86
2023-01-28T22:02:00.663Z,73.67
2023-01-28T22:04:33.090Z,74.13
2023-01-28T22:07:02.230Z,73.91
2023-01-28T22:09:33.812Z,73.45
2023-01-28T22:12:05.179Z,73.37
2023-01-28T22:14:33.723Z,72.91
2023-01-28T22:17:02.570Z,72.47
2023-01-28T22:19:30.901Z,72.59
2023-01-28T22:21:59.208Z,72.69
2023-01-28T22:24:28.192Z,73.46
2023-01-28T22:26:58.289Z,72.17
2023-01-28T22:29:26.703Z,73.15
2023-01-28T22:31:55.794Z,72.56
2023-01-28T22:34:24.621Z,72.59
2023-01-28T22:36:53.598Z,72.45
2023-01-28T22:39:21.924Z,72.11
2023-01-28T22:41:50.333Z,72.16
2023-01-28T22:44:21.090Z,70.66
2023-01-28T22:46:49.489Z,69.01
2023-01-28T22:49:17.850Z,70.52
2023-01-28T22:51:46.171Z,70.00
2023-01-28T22:54:15.422Z,69.47
2023-01-28T22:56:43.915Z,70.71
2023-01-28T22:59:12.859Z,69.93
2023-01-28T23:01:42.570Z,71.88
2023-01-28T23:04:10.957Z,69.73
2023-01-28T23:06:39.487Z,68.90
2023-01-28T23:09:07.919Z,68.99
2023-01-28T23:11:36.280Z,69.66
2023-01-28T23:14:22.895Z,69.64
2023-01-28T23:17:09.893Z,70.60
2023-01-28T23:19:55.356Z,69.72
2023-01-28T23:22:45.371Z,67.92
2023-01-28T23:25:13.788Z,67.06
2023-01-28T23:27:42.290Z,68.75
2023-01-28T23:30:12.400Z,69.49
2023-01-28T23:32:45.108Z,68.71
2023-01-28T23:35:13.689Z,68.51
2023-01-28T23:37:42.577Z,69.17
2023-01-28T23:40:12.484Z,67.97
2023-01-28T23:42:41.885Z,66.92
2023-01-28T23:45:11.746Z,67.36
2023-01-28T23:47:41.572Z,68.34
2023-01-28T23:50:11.303Z,68.61
2023-01-28T23:52:39.622Z,68.14
2023-01-28T23:55:08.933Z,66.98
2023-01-28T23:57:37.716Z,66.18
